Time;durP1;ratioP1;P1;durP2;ratioP2;P2;SDS_P1;SDS_P2;PMS_P1;PMS_P2;Temp;Humidity;BMP_temperature;BMP_pressure;BME280_temperature;BME280_humidity;BME280_pressure;Samples;Min_cycle;Max_cycle;Signal;HPM_P1;HPM_P2
2022/11/20 00:01:45;;;;;;;35.83;18.45;;;;;;;7.98;100.00;96965.56;4896740;29;20094;-80
2022/11/20 00:04:11;;;;;;;40.10;20.58;;;;;;;8.04;100.00;96972.31;4894979;29;20118;-80
2022/11/20 00:06:37;;;;;;;35.17;17.08;;;;;;;7.98;100.00;96962.88;4891781;29;20404;-81
2022/11/20 00:09:05;;;;;;;34.95;16.60;;;;;;;7.93;100.00;96975.63;4900996;29;20028;-80
2022/11/20 00:11:31;;;;;;;31.45;15.38;;;;;;;7.84;100.00;96973.53;4891852;29;20036;-80
2022/11/20 00:13:59;;;;;;;26.77;13.45;;;;;;;7.66;100.00;96979.94;4890665;29;20023;-80
2022/11/20 00:16:27;;;;;;;27.00;12.40;;;;;;;7.64;100.00;96964.06;4890610;29;20035;-80
2022/11/20 00:18:53;;;;;;;25.95;11.30;;;;;;;7.69;100.00;96953.13;4888423;29;20027;-80
2022/11/20 00:21:24;;;;;;;27.75;12.88;;;;;;;7.65;100.00;96951.63;4901936;29;20114;-81
2022/11/20 00:23:51;;;;;;;35.35;13.77;;;;;;;7.64;100.00;96955.22;4883713;29;20030;-80
2022/11/20 00:26:18;;;;;;;27.52;14.02;;;;;;;7.64;100.00;96965.88;4891350;29;20376;-80
2022/11/20 00:28:49;;;;;;;36.28;15.32;;;;;;;7.57;100.00;96935.22;4897786;29;20523;-80
2022/11/20 00:31:16;;;;;;;35.85;16.45;;;;;;;7.58;100.00;96950.25;4892376;29;20503;-79
2022/11/20 00:33:42;;;;;;;43.58;20.80;;;;;;;7.62;100.00;96952.66;4901944;29;20067;-80
2022/11/20 00:36:16;;;;;;;44.85;20.48;;;;;;;7.66;100.00;96929.38;4893229;29;20030;-80
2022/11/20 00:38:42;;;;;;;39.60;17.88;;;;;;;7.69;100.00;96926.50;4886132;29;20055;-81
2022/11/20 00:41:10;;;;;;;50.63;24.17;;;;;;;7.77;100.00;96913.63;4902901;29;20500;-81
2022/11/20 00:43:37;;;;;;;38.25;19.05;;;;;;;7.73;100.00;96929.84;4913425;29;20024;-80
2022/11/20 00:46:08;;;;;;;37.58;18.52;;;;;;;7.72;100.00;96931.66;4883387;29;20028;-80
2022/11/20 00:48:34;;;;;;;40.72;18.50;;;;;;;7.80;100.00;96926.75;4886938;29;20024;-80
2022/11/20 00:51:00;;;;;;;50.08;23.25;;;;;;;7.86;100.00;96909.53;4888059;29;20091;-80
2022/11/20 00:53:26;;;;;;;41.80;19.30;;;;;;;7.89;100.00;96907.53;4885826;29;20457;-79
2022/11/20 00:55:56;;;;;;;37.65;18.17;;;;;;;7.95;100.00;96917.81;4928510;29;20043;-79
2022/11/20 00:58:22;;;;;;;37.58;17.92;;;;;;;7.97;100.00;96931.88;4900281;29;20472;-80
2022/11/20 01:00:49;;;;;;;39.50;17.00;;;;;;;7.92;100.00;96923.31;4917565;29;20031;-80
2022/11/20 01:03:16;;;;;;;31.23;15.52;;;;;;;8.08;100.00;96926.75;4916409;29;20035;-80
2022/11/20 01:05:42;;;;;;;27.33;14.88;;;;;;;8.03;100.00;96912.84;4914077;29;20532;-79
2022/11/20 01:08:07;;;;;;;30.23;15.48;;;;;;;8.03;100.00;96923.50;4911784;29;20111;-79
2022/11/20 01:10:33;;;;;;;29.80;14.95;;;;;;;8.00;100.00;96912.19;4885738;29;20123;-80
2022/11/20 01:15:42;;;;;;;33.22;13.80;;;;;;;7.93;100.00;96887.78;4915153;29;20039;-80
2022/11/20 01:18:08;;;;;;;28.27;14.85;;;;;;;7.97;100.00;96899.91;4882893;29;20494;-80
2022/11/20 01:20:37;;;;;;;45.42;21.45;;;;;;;7.91;100.00;96894.13;4899155;29;20465;-79
2022/11/20 01:23:03;;;;;;;44.10;19.90;;;;;;;7.99;100.00;96910.50;4888607;29;20169;-80
2022/11/20 01:25:29;;;;;;;30.95;16.05;;;;;;;7.95;100.00;96896.50;4901462;29;20031;-80
2022/11/20 01:27:55;;;;;;;29.92;15.30;;;;;;;8.07;100.00;96919.72;4889089;29;20537;-80
2022/11/20 01:30:20;;;;;;;32.10;15.70;;;;;;;8.03;100.00;96886.22;4898498;29;20039;-80
2022/11/20 01:32:48;;;;;;;28.75;15.55;;;;;;;8.03;100.00;96888.88;4890095;29;20149;-79
2022/11/20 01:35:13;;;;;;;36.88;18.88;;;;;;;8.09;100.00;96895.66;4882503;29;20073;-80
2022/11/20 01:37:39;;;;;;;27.75;14.55;;;;;;;8.15;100.00;96860.66;4897509;29;20044;-80
2022/11/20 01:40:05;;;;;;;28.90;15.25;;;;;;;8.21;100.00;96876.25;4903502;29;20032;-80
2022/11/20 01:46:03;;;;;;;29.20;14.95;;;;;;;8.24;100.00;96851.22;4908322;29;20062;-80
2022/11/20 01:48:35;;;;;;;39.50;15.18;;;;;;;8.14;100.00;96842.94;4901310;29;20062;-80
2022/11/20 01:51:01;;;;;;;31.13;14.20;;;;;;;8.08;100.00;96817.56;4902151;29;20476;-81
2022/11/20 01:53:31;;;;;;;28.92;15.23;;;;;;;8.13;100.00;96842.09;4893366;29;20575;-80
2022/11/20 01:55:59;;;;;;;31.80;15.40;;;;;;;8.19;100.00;96840.84;4896209;29;20032;-81
2022/11/20 01:58:29;;;;;;;32.92;15.32;;;;;;;8.21;100.00;96838.94;4885608;29;20052;-81
2022/11/20 02:00:55;;;;;;;30.88;14.55;;;;;;;8.14;100.00;96833.16;4889977;29;20047;-80
2022/11/20 02:03:21;;;;;;;33.58;15.07;;;;;;;8.09;100.00;96811.25;4879216;29;20037;-81
2022/11/20 02:05:51;;;;;;;34.80;17.08;;;;;;;8.22;100.00;96834.44;4892490;29;20035;-81
2022/11/20 02:08:17;;;;;;;35.33;14.60;;;;;;;8.17;100.00;96816.13;4901131;29;20118;-81
2022/11/20 02:10:43;;;;;;;30.73;14.85;;;;;;;8.12;100.00;96803.09;4895793;29;20478;-81
2022/11/20 02:15:53;;;;;;;34.20;14.15;;;;;;;8.22;100.00;96797.16;4900754;29;20067;-81
2022/11/20 02:18:20;;;;;;;28.65;15.23;;;;;;;8.27;100.00;96846.56;4901017;29;20067;-80
2022/11/20 02:20:48;;;;;;;27.55;14.13;;;;;;;8.30;100.00;96843.72;4911479;29;20123;-79
2022/11/20 02:23:25;;;;;;;30.63;14.23;;;;;;;8.29;100.00;96835.81;4892620;29;20413;-81
2022/11/20 02:25:51;;;;;;;26.65;13.20;;;;;;;8.18;100.00;96845.31;4907632;29;20031;-81
2022/11/20 02:28:17;;;;;;;22.05;13.05;;;;;;;8.24;100.00;96822.78;4895065;29;20489;-80
2022/11/20 02:30:43;;;;;;;30.85;12.75;;;;;;;8.29;100.00;96820.69;4888217;29;20035;-80
2022/11/20 02:33:08;;;;;;;20.08;11.10;;;;;;;8.29;100.00;96830.47;4893692;29;20038;-79
2022/11/20 02:35:34;;;;;;;21.73;11.68;;;;;;;8.37;100.00;96850.34;4913101;29;20028;-80
2022/11/20 02:38:01;;;;;;;22.30;10.30;;;;;;;8.34;100.00;96847.00;4913403;29;20094;-79
2022/11/20 02:40:27;;;;;;;19.60;10.90;;;;;;;8.42;100.00;96842.06;4890526;29;20131;-80
2022/11/20 02:42:56;;;;;;;25.20;12.10;;;;;;;8.48;100.00;96858.53;4895272;29;20036;-79
2022/11/20 02:45:25;;;;;;;22.73;11.30;;;;;;;8.49;100.00;96848.72;4886874;29;20032;-80
2022/11/20 02:47:51;;;;;;;19.98;9.98;;;;;;;8.32;100.00;96831.16;4899329;29;20102;-80
2022/11/20 02:50:17;;;;;;;26.67;10.48;;;;;;;8.25;100.00;96824.47;4913463;29;20575;-80
2022/11/20 02:52:42;;;;;;;18.00;10.43;;;;;;;8.51;100.00;96868.13;4915671;29;20027;-80
2022/11/20 02:55:08;;;;;;;21.63;10.93;;;;;;;8.46;100.00;96846.25;4894503;29;20020;-80
2022/11/20 02:57:34;;;;;;;20.23;9.77;;;;;;;8.29;100.00;96831.34;4881468;29;20083;-80
2022/11/20 02:59:59;;;;;;;17.58;10.02;;;;;;;8.44;100.00;96848.13;4896965;29;20550;-81
2022/11/20 03:02:25;;;;;;;18.98;10.25;;;;;;;8.43;100.00;96855.28;4913812;29;20445;-80
2022/11/20 03:04:51;;;;;;;18.35;10.02;;;;;;;8.60;100.00;96875.53;4885190;29;20552;-80
2022/11/20 03:07:16;;;;;;;19.10;8.65;;;;;;;8.70;100.00;96879.31;4902285;29;20112;-80
2022/11/20 03:09:42;;;;;;;15.38;9.15;;;;;;;8.70;100.00;96858.81;4903843;29;20086;-79
2022/11/20 03:12:07;;;;;;;14.52;8.65;;;;;;;8.57;100.00;96849.06;4900324;29;20116;-80
2022/11/20 03:14:33;;;;;;;17.20;9.57;;;;;;;8.68;100.00;96868.72;4893145;29;20054;-80
2022/11/20 03:16:58;;;;;;;15.73;9.30;;;;;;;8.76;100.00;96873.56;4892414;29;20027;-80
2022/11/20 03:19:24;;;;;;;17.00;8.90;;;;;;;8.67;100.00;96848.34;4905556;29;20036;-80
2022/11/20 03:21:49;;;;;;;15.15;8.77;;;;;;;8.63;100.00;96838.00;4890629;29;20024;-80
2022/11/20 03:24:15;;;;;;;19.83;8.82;;;;;;;8.91;100.00;96855.69;4903399;29;20087;-80
2022/11/20 03:26:41;;;;;;;17.05;9.18;;;;;;;8.82;100.00;96865.16;4888881;29;20059;-80
2022/11/20 03:29:07;;;;;;;15.45;8.50;;;;;;;8.71;100.00;96843.66;4889778;29;20462;-80
2022/11/20 03:31:35;;;;;;;18.88;9.55;;;;;;;8.84;100.00;96913.91;4890991;29;20032;-80
2022/11/20 03:34:02;;;;;;;18.35;9.68;;;;;;;8.98;100.00;96887.19;4903331;29;20030;-80
2022/11/20 03:36:28;;;;;;;19.35;9.52;;;;;;;8.95;100.00;96881.22;4895576;29;20043;-80
2022/11/20 03:38:55;;;;;;;14.70;8.48;;;;;;;9.18;100.00;96891.19;4908415;29;20035;-80
2022/11/20 03:41:26;;;;;;;19.73;8.93;;;;;;;9.16;100.00;96896.66;4903064;29;20036;-79
2022/11/20 03:43:54;;;;;;;16.38;8.85;;;;;;;9.24;100.00;96907.66;4903111;29;20027;-80
2022/11/20 03:46:20;;;;;;;16.05;9.02;;;;;;;9.30;100.00;96882.38;4902876;29;20031;-80
2022/11/20 03:48:45;;;;;;;19.20;9.40;;;;;;;9.26;100.00;96868.38;4918921;29;20490;-80
2022/11/20 03:51:12;;;;;;;16.92;9.40;;;;;;;9.45;100.00;96883.13;4902908;29;20027;-80
2022/11/20 03:53:39;;;;;;;16.25;8.85;;;;;;;9.42;100.00;96875.34;4902842;29;20526;-82
2022/11/20 03:56:05;;;;;;;15.07;8.20;;;;;;;9.44;100.00;96887.66;4902987;29;20031;-79
2022/11/20 03:58:34;;;;;;;13.65;7.55;;;;;;;9.37;100.00;96861.47;4918384;29;20043;-80
2022/11/20 04:01:07;;;;;;;12.10;7.07;;;;;;;9.35;100.00;96860.72;4902873;29;20023;-80
2022/11/20 04:03:34;;;;;;;11.68;6.63;;;;;;;9.44;100.00;96854.75;4903064;29;20038;-80
2022/11/20 04:06:08;;;;;;;13.27;6.55;;;;;;;9.40;100.00;96877.25;4886479;29;20031;-80
2022/11/20 04:08:33;;;;;;;11.82;6.38;;;;;;;9.30;100.00;96844.16;4884154;29;20052;-79
2022/11/20 04:11:19;;;;;;;11.13;6.57;;;;;;;9.51;100.00;96872.03;4883604;29;20032;-80
2022/11/20 04:13:50;;;;;;;11.60;6.00;;;;;;;9.41;100.00;96854.97;4899401;29;20047;-81
2022/11/20 04:16:16;;;;;;;12.07;6.78;;;;;;;9.63;100.00;96876.53;4897318;29;20031;-80
2022/11/20 04:18:41;;;;;;;13.13;7.72;;;;;;;9.66;100.00;96903.03;4894713;29;20583;-80
2022/11/20 04:21:07;;;;;;;9.63;6.30;;;;;;;9.75;100.00;96873.03;4891127;29;20205;-80
2022/11/20 04:23:33;;;;;;;11.05;6.65;;;;;;;9.83;100.00;96860.00;4888153;29;20027;-80
2022/11/20 04:26:04;;;;;;;11.80;7.00;;;;;;;9.78;100.00;96870.16;4894452;29;20032;-81
2022/11/20 04:28:30;;;;;;;13.82;7.10;;;;;;;9.60;100.00;96828.69;4906164;29;20043;-81
2022/11/20 04:31:06;;;;;;;14.60;6.90;;;;;;;9.92;100.00;96877.19;4889723;29;20032;-81
2022/11/20 04:33:32;;;;;;;22.05;10.32;;;;;;;9.77;100.00;96865.78;4888920;29;20489;-81
2022/11/20 04:36:04;;;;;;;12.90;7.22;;;;;;;9.98;100.00;96866.94;4888545;29;20039;-80
2022/11/20 04:38:30;;;;;;;16.38;8.00;;;;;;;9.91;100.00;96886.16;4891123;29;20028;-81
2022/11/20 04:41:00;;;;;;;22.00;11.80;;;;;;;9.87;100.00;96856.16;4882985;29;20108;-80
2022/11/20 04:43:26;;;;;;;23.00;10.82;;;;;;;10.02;100.00;96891.63;4901489;29;20034;-80
2022/11/20 04:45:53;;;;;;;22.17;11.70;;;;;;;10.02;100.00;96902.31;4898648;29;20031;-80
2022/11/20 04:48:19;;;;;;;25.13;12.68;;;;;;;10.04;100.00;96897.69;4911039;29;20032;-81
2022/11/20 04:50:44;;;;;;;21.88;11.15;;;;;;;10.08;100.00;96860.00;4902109;29;20077;-80
2022/11/20 04:53:10;;;;;;;17.35;10.40;;;;;;;10.06;100.00;96853.03;4901904;29;20032;-80
2022/11/20 04:55:35;;;;;;;28.13;10.82;;;;;;;9.90;100.00;96863.09;4886456;29;20039;-80
2022/11/20 04:58:01;;;;;;;18.85;10.15;;;;;;;10.11;100.00;96888.31;4891291;29;20052;-80
2022/11/20 05:00:26;;;;;;;22.73;11.60;;;;;;;10.01;100.00;96912.13;4894041;29;20408;-80
2022/11/20 05:02:52;;;;;;;25.17;13.02;;;;;;;9.91;100.00;96886.16;4888174;29;20487;-80
2022/11/20 05:05:18;;;;;;;18.92;8.93;;;;;;;9.87;100.00;96896.22;4892093;29;20047;-81
2022/11/20 05:07:43;;;;;;;13.98;8.32;;;;;;;9.85;100.00;96898.13;4900956;29;20035;-79
2022/11/20 05:10:09;;;;;;;14.65;8.48;;;;;;;9.79;100.00;96903.91;4891887;29;20406;-81
2022/11/20 05:12:35;;;;;;;17.25;9.40;;;;;;;9.83;100.00;96948.13;4899519;29;20052;-81
2022/11/20 05:15:00;;;;;;;23.25;11.85;;;;;;;9.90;100.00;96967.28;4896209;29;20039;-82
2022/11/20 05:17:26;;;;;;;17.98;10.27;;;;;;;9.96;100.00;96964.19;4901253;29;20038;-81
2022/11/20 05:19:51;;;;;;;13.85;7.35;;;;;;;9.91;100.00;96956.47;4889724;29;20027;-81
2022/11/20 05:22:17;;;;;;;14.65;9.35;;;;;;;10.07;100.00;96996.34;4891755;29;20040;-81
2022/11/20 05:24:42;;;;;;;16.88;9.65;;;;;;;10.04;100.00;96989.41;4881628;29;20027;-81
2022/11/20 05:27:08;;;;;;;14.80;8.73;;;;;;;10.07;100.00;97005.22;4896424;29;20027;-81
2022/11/20 05:29:33;;;;;;;16.20;8.90;;;;;;;10.04;100.00;97013.44;4900216;29;20408;-73
2022/11/20 05:31:59;;;;;;;19.42;8.32;;;;;;;10.11;100.00;97006.72;4915069;29;20220;-73
2022/11/20 05:34:24;;;;;;;16.08;8.63;;;;;;;10.08;100.00;97006.09;4897854;29;20039;-73
2022/11/20 05:36:50;;;;;;;19.55;8.85;;;;;;;10.10;100.00;97020.19;4916953;29;20171;-73
2022/11/20 05:39:15;;;;;;;19.50;9.55;;;;;;;10.05;100.00;97011.63;4933835;29;20024;-72
2022/11/20 05:41:41;;;;;;;18.10;8.77;;;;;;;9.96;100.00;96998.91;4916735;29;20075;-73
2022/11/20 05:44:06;;;;;;;17.80;9.40;;;;;;;10.11;100.00;97014.75;4911544;29;20028;-72
2022/11/20 05:46:32;;;;;;;22.38;9.57;;;;;;;10.09;100.00;97011.31;4897573;29;20100;-74
2022/11/20 05:48:58;;;;;;;18.98;9.73;;;;;;;10.16;100.00;97023.31;4897572;29;20024;-72
2022/11/20 05:51:24;;;;;;;17.67;9.00;;;;;;;10.22;100.00;97036.25;4931592;29;20035;-81
2022/11/20 05:53:49;;;;;;;21.25;10.45;;;;;;;10.32;100.00;97037.34;4882005;29;20157;-82
2022/11/20 05:56:20;;;;;;;17.92;9.55;;;;;;;10.42;100.00;97042.06;4883658;29;20190;-82
2022/11/20 05:58:49;;;;;;;20.45;10.43;;;;;;;10.36;100.00;97038.00;4891779;29;20052;-81
2022/11/20 06:01:18;;;;;;;17.17;9.82;;;;;;;10.43;100.00;97066.00;4900710;29;20459;-81
2022/11/20 06:03:47;;;;;;;21.73;10.05;;;;;;;10.47;100.00;97088.03;4907441;29;20472;-81
2022/11/20 06:06:21;;;;;;;21.52;10.38;;;;;;;10.41;100.00;97081.31;4901407;29;20035;-81
2022/11/20 06:08:47;;;;;;;17.25;9.52;;;;;;;10.33;100.00;97081.84;4886082;29;20032;-81
2022/11/20 06:11:14;;;;;;;28.25;14.77;;;;;;;10.45;100.00;97089.97;4894547;29;20545;-81
2022/11/20 06:13:40;;;;;;;38.50;18.13;;;;;;;10.63;100.00;97102.06;4882582;29;20088;-81
2022/11/20 06:16:06;;;;;;;33.83;17.25;;;;;;;10.80;100.00;97101.75;4898360;29;20028;-82
2022/11/20 06:18:32;;;;;;;26.35;12.70;;;;;;;10.50;100.00;97063.75;4882734;29;20032;-81
2022/11/20 06:21:02;;;;;;;23.23;12.35;;;;;;;10.70;100.00;97100.69;4899278;29;20084;-80
2022/11/20 06:23:31;;;;;;;36.38;18.25;;;;;;;10.72;100.00;97122.84;4891542;29;20407;-79
2022/11/20 06:25:57;;;;;;;31.05;13.05;;;;;;;10.54;100.00;97114.28;4898280;29;20035;-81
2022/11/20 06:28:23;;;;;;;26.45;13.80;;;;;;;10.29;100.00;97096.38;4914885;29;20119;-80
2022/11/20 06:30:48;;;;;;;31.77;15.70;;;;;;;10.52;100.00;97140.25;4892782;29;20030;-84
2022/11/20 06:33:14;;;;;;;30.48;13.77;;;;;;;10.58;100.00;97134.47;4900942;29;20039;-72
2022/11/20 06:35:39;;;;;;;158.38;80.65;;;;;;;10.50;100.00;97120.78;4897434;29;20023;-71
2022/11/20 06:38:05;;;;;;;34.30;17.67;;;;;;;10.59;100.00;97132.66;4918682;29;20028;-81
2022/11/20 06:40:30;;;;;;;38.58;18.98;;;;;;;10.50;100.00;97146.66;4900430;29;20040;-80
2022/11/20 06:42:56;;;;;;;27.30;14.15;;;;;;;10.46;100.00;97154.03;4887364;29;20039;-81
2022/11/20 06:45:22;;;;;;;28.67;13.65;;;;;;;10.45;100.00;97155.00;4894103;29;20034;-79
2022/11/20 06:47:47;;;;;;;31.60;16.38;;;;;;;10.44;100.00;97150.59;4896017;29;20036;-80
2022/11/20 06:50:13;;;;;;;31.60;14.27;;;;;;;10.46;100.00;97167.41;4885529;29;20028;-74
2022/11/20 06:52:38;;;;;;;27.80;13.48;;;;;;;10.41;100.00;97176.69;4924230;29;20411;-74
2022/11/20 06:55:07;;;;;;;30.67;14.25;;;;;;;10.29;100.00;97171.22;4926613;29;20027;-71
2022/11/20 06:57:33;;;;;;;32.97;15.38;;;;;;;10.23;100.00;97171.63;4910862;29;20055;-72
2022/11/20 06:59:58;;;;;;;32.15;15.27;;;;;;;10.31;100.00;97184.47;4913665;29;20104;-76
2022/11/20 07:02:24;;;;;;;29.80;14.70;;;;;;;10.44;100.00;97195.19;4909761;29;20043;-73
2022/11/20 07:04:49;;;;;;;31.02;14.70;;;;;;;10.42;100.00;97186.44;4916849;29;20039;-72
2022/11/20 07:07:15;;;;;;;37.55;18.92;;;;;;;10.48;100.00;97196.72;4892520;29;20412;-72
2022/11/20 07:09:40;;;;;;;151.75;77.10;;;;;;;10.51;100.00;97193.84;4929569;29;20136;-72
2022/11/20 07:12:06;;;;;;;38.50;17.90;;;;;;;10.68;100.00;97198.88;4914693;29;20110;-73
2022/11/20 07:14:31;;;;;;;35.83;18.35;;;;;;;10.59;100.00;97187.00;4929568;29;20160;-72
2022/11/20 07:16:57;;;;;;;29.27;13.63;;;;;;;10.40;100.00;97177.69;4915603;29;20031;-72
2022/11/20 07:19:22;;;;;;;93.57;50.22;;;;;;;10.46;100.00;97196.81;4923503;29;20046;-72
2022/11/20 07:21:48;;;;;;;39.88;18.80;;;;;;;10.61;100.00;97192.25;4924760;29;20036;-72
2022/11/20 07:24:13;;;;;;;29.67;12.75;;;;;;;10.67;100.00;97206.09;4897468;29;20036;-72
2022/11/20 07:26:39;;;;;;;25.83;13.40;;;;;;;10.78;100.00;97199.97;4922066;29;20114;-73
2022/11/20 07:29:06;;;;;;;29.08;13.18;;;;;;;10.65;100.00;97178.56;4927247;29;20031;-85
2022/11/20 07:31:31;;;;;;;24.67;12.20;;;;;;;10.65;100.00;97188.41;4897823;29;20046;-74
2022/11/20 07:33:57;;;;;;;24.67;12.15;;;;;;;10.65;100.00;97191.06;4915185;29;20428;-74
2022/11/20 07:36:22;;;;;;;34.35;14.98;;;;;;;10.59;100.00;97195.03;4908769;29;20040;-74
2022/11/20 07:38:48;;;;;;;30.63;16.85;;;;;;;10.69;100.00;97200.63;4931559;29;20030;-71
2022/11/20 07:41:13;;;;;;;33.35;14.73;;;;;;;10.74;100.00;97214.53;4907554;29;20173;-74
2022/11/20 07:43:39;;;;;;;30.80;13.32;;;;;;;10.80;100.00;97204.25;4933508;29;20038;-71
2022/11/20 07:46:04;;;;;;;30.05;14.27;;;;;;;10.66;100.00;97195.47;4919726;29;20051;-75
2022/11/20 07:48:30;;;;;;;28.90;12.93;;;;;;;10.63;100.00;97190.34;4883604;29;20030;-76
2022/11/20 07:50:56;;;;;;;23.50;11.07;;;;;;;10.75;100.00;97184.16;4903855;29;20036;-72
2022/11/20 07:53:23;;;;;;;21.83;10.57;;;;;;;10.75;100.00;97173.44;4893353;29;20485;-71
2022/11/20 07:55:48;;;;;;;25.90;11.98;;;;;;;10.83;100.00;97176.44;4916848;29;20119;-73
2022/11/20 07:58:14;;;;;;;26.02;13.07;;;;;;;10.70;100.00;97183.63;4926039;29;20576;-72
2022/11/20 08:00:40;;;;;;;25.23;13.05;;;;;;;10.65;100.00;97180.38;4916784;29;20040;-72
2022/11/20 08:03:06;;;;;;;22.98;11.95;;;;;;;10.68;100.00;97186.38;4902638;29;20095;-73
2022/11/20 08:05:32;;;;;;;21.25;10.57;;;;;;;10.82;100.00;97180.09;4907835;29;20067;-74
2022/11/20 08:07:58;;;;;;;22.08;12.00;;;;;;;10.82;100.00;97185.44;4896368;29;20090;-74
2022/11/20 08:10:23;;;;;;;22.45;11.20;;;;;;;10.79;100.00;97180.31;4929744;29;20053;-74
2022/11/20 08:15:35;;;;;;;25.90;12.23;;;;;;;10.82;100.00;97190.78;4898791;29;20074;-73
2022/11/20 08:18:05;;;;;;;25.13;11.15;;;;;;;10.95;100.00;97178.25;4918081;29;20031;-71
2022/11/20 08:20:31;;;;;;;25.80;12.52;;;;;;;11.01;100.00;97167.16;4913746;29;20016;-71
2022/11/20 08:23:00;;;;;;;27.05;12.30;;;;;;;11.08;100.00;97173.78;4931374;29;20027;-70
2022/11/20 08:25:28;;;;;;;29.55;13.68;;;;;;;11.10;100.00;97168.34;4918060;29;20059;-72
2022/11/20 08:27:53;;;;;;;22.60;12.15;;;;;;;11.12;100.00;97151.19;4901820;29;20127;-72
2022/11/20 08:30:19;;;;;;;26.25;12.65;;;;;;;11.09;100.00;97145.19;4911766;29;20112;-73
2022/11/20 08:32:51;;;;;;;25.05;11.55;;;;;;;11.10;100.00;97153.13;4899023;29;20108;-73
2022/11/20 08:35:17;;;;;;;25.98;13.48;;;;;;;11.06;100.00;97146.28;4898923;29;20087;-73
2022/11/20 08:37:46;;;;;;;21.23;11.05;;;;;;;11.19;100.00;97119.50;4915597;29;20036;-76
2022/11/20 08:40:12;;;;;;;21.92;10.55;;;;;;;11.21;100.00;97129.13;4882938;29;20476;-72
2022/11/20 08:42:45;;;;;;;19.92;10.95;;;;;;;11.22;100.00;97120.16;4903021;29;20053;-74
2022/11/20 08:45:10;;;;;;;21.48;11.38;;;;;;;11.27;100.00;97117.97;4934447;29;20487;-73
2022/11/20 08:47:36;;;;;;;22.92;12.18;;;;;;;11.16;100.00;97099.16;4909715;29;20030;-73
2022/11/20 08:50:02;;;;;;;23.42;12.38;;;;;;;11.36;100.00;97114.66;4934436;29;20122;-74
2022/11/20 08:52:31;;;;;;;20.58;10.65;;;;;;;11.54;100.00;97103.56;4901673;29;20039;-73
2022/11/20 08:54:57;;;;;;;23.10;11.93;;;;;;;11.86;100.00;97104.75;4917276;29;20040;-74
2022/11/20 08:57:23;;;;;;;29.48;16.05;;;;;;;11.82;100.00;97095.25;4917030;29;20052;-73
2022/11/20 08:59:48;;;;;;;29.17;15.18;;;;;;;11.86;100.00;97100.28;4916736;29;20107;-74
2022/11/20 09:02:15;;;;;;;26.95;13.25;;;;;;;11.88;100.00;97089.41;4901347;29;20483;-73
2022/11/20 09:04:41;;;;;;;27.20;14.32;;;;;;;11.77;100.00;97082.19;4889428;29;20126;-72
2022/11/20 09:07:07;;;;;;;23.45;13.50;;;;;;;11.68;100.00;97074.81;4922573;29;20067;-71
2022/11/20 09:09:33;;;;;;;24.67;13.52;;;;;;;11.76;100.00;97080.47;4930915;29;20056;-72
2022/11/20 09:11:58;;;;;;;32.15;14.50;;;;;;;11.69;100.00;97081.84;4918832;29;20035;-71
2022/11/20 09:14:28;;;;;;;31.52;13.48;;;;;;;11.63;100.00;97089.50;4899822;29;20028;-71
2022/11/20 09:16:55;;;;;;;23.35;13.15;;;;;;;11.69;100.00;97079.19;4917583;29;20087;-71
2022/11/20 09:19:20;;;;;;;26.40;13.00;;;;;;;11.77;100.00;97079.53;4916747;29;20034;-71
2022/11/20 09:21:46;;;;;;;25.05;11.50;;;;;;;11.91;100.00;97071.28;4921867;29;20032;-74
2022/11/20 09:24:11;;;;;;;17.95;9.68;;;;;;;11.91;100.00;97065.06;4897854;29;20032;-73
2022/11/20 09:26:37;;;;;;;27.45;12.68;;;;;;;11.84;100.00;97043.22;4885369;29;20035;-73
2022/11/20 09:29:02;;;;;;;36.22;18.65;;;;;;;11.84;100.00;97058.47;4933612;29;20030;-73
2022/11/20 09:31:28;;;;;;;51.22;23.33;;;;;;;11.82;100.00;97077.34;4916751;29;20028;-74
2022/11/20 09:33:54;;;;;;;30.35;15.48;;;;;;;11.69;100.00;97103.28;4887810;29;20492;-74
2022/11/20 09:36:19;;;;;;;27.50;14.82;;;;;;;11.64;100.00;97126.03;4897800;29;20034;-74
2022/11/20 09:38:46;;;;;;;31.13;14.82;;;;;;;11.43;100.00;97123.97;4914723;29;20039;-73
2022/11/20 09:41:38;;;;;;;23.15;12.18;;;;;;;11.33;100.00;97128.25;4882024;29;20475;-73
2022/11/20 09:44:30;;;;;;;22.20;11.50;;;;;;;11.23;100.00;97116.47;4897637;29;20028;-74
2022/11/20 09:47:12;;;;;;;18.37;9.47;;;;;;;10.92;100.00;97090.19;4913912;29;20492;-75
2022/11/20 09:49:56;;;;;;;21.05;10.10;;;;;;;10.83;100.00;97107.75;4914575;29;20276;-74
2022/11/20 09:52:53;;;;;;;25.00;11.93;;;;;;;10.88;100.00;97126.16;4914608;29;20028;-73
2022/11/20 09:55:19;;;;;;;26.50;11.73;;;;;;;10.88;100.00;97126.16;4910603;29;20055;-73
2022/11/20 09:57:47;;;;;;;31.48;15.35;;;;;;;10.79;100.00;97116.09;4897361;29;20048;-74
2022/11/20 10:00:14;;;;;;;75.65;32.22;;;;;;;10.87;100.00;97132.47;4897326;29;20028;-73
2022/11/20 10:02:56;;;;;;;85.57;36.20;;;;;;;10.93;100.00;97137.38;4897434;29;20032;-73
2022/11/20 10:05:26;;;;;;;62.40;28.83;;;;;;;10.94;100.00;97124.88;4897597;29;20457;-75
2022/11/20 10:08:10;;;;;;;53.78;25.17;;;;;;;11.01;100.00;97127.03;4897631;29;20020;-73
2022/11/20 10:10:42;;;;;;;32.42;18.00;;;;;;;11.05;100.00;97123.16;4898448;29;20059;-75
2022/11/20 10:13:17;;;;;;;35.42;17.02;;;;;;;10.96;100.00;97128.28;4911266;29;20098;-73
2022/11/20 10:15:56;;;;;;;31.55;14.63;;;;;;;10.69;100.00;97123.91;4934885;29;20035;-73
2022/11/20 10:18:30;;;;;;;94.53;42.35;;;;;;;10.62;100.00;97129.78;4918219;29;20111;-74
2022/11/20 10:21:05;;;;;;;32.03;15.77;;;;;;;10.58;100.00;97131.78;4918241;29;20032;-74
2022/11/20 10:23:33;;;;;;;38.20;18.98;;;;;;;10.46;100.00;97131.81;4901229;29;20488;-74
2022/11/20 10:26:10;;;;;;;41.03;19.13;;;;;;;10.49;100.00;97134.28;4918034;29;20039;-73
2022/11/20 10:28:44;;;;;;;26.75;13.27;;;;;;;10.51;100.00;97124.31;4918107;29;20059;-73
2022/11/20 10:31:14;;;;;;;40.90;20.48;;;;;;;10.50;100.00;97102.06;4917876;29;20115;-73
2022/11/20 10:33:42;;;;;;;53.65;26.45;;;;;;;10.63;100.00;97118.97;4901215;29;20065;-71
2022/11/20 10:36:17;;;;;;;31.65;16.30;;;;;;;10.62;100.00;97117.25;4900972;29;20042;-70
2022/11/20 10:39:11;;;;;;;34.85;16.63;;;;;;;10.71;100.00;97132.66;4900916;29;20033;-71
2022/11/20 10:41:40;;;;;;;35.47;17.63;;;;;;;10.71;100.00;97123.78;4867339;29;20436;-74
2022/11/20 10:47:18;;;;;;;35.25;18.77;;;;;;;10.51;100.00;97078.84;4913828;29;20039;-73
2022/11/20 10:49:53;;;;;;;38.83;18.98;;;;;;;10.55;100.00;97053.63;4900656;29;20016;-73
2022/11/20 10:52:29;;;;;;;44.20;20.83;;;;;;;10.57;100.00;97059.72;4925229;29;20047;-73
2022/11/20 10:55:32;;;;;;;42.45;21.42;;;;;;;10.62;100.00;97076.28;4936710;29;20064;-74
2022/11/20 10:58:07;;;;;;;;;;;;;;;10.71;100.00;97083.66;4936949;29;20396;-74
2022/11/20 11:00:33;;;;;;;39.65;21.75;;;;;;;10.73;100.00;97082.63;4895639;29;19933;-74
2022/11/20 11:03:02;;;;;;;38.03;20.90;;;;;;;10.82;100.00;97089.13;4936695;29;20460;-73
2022/11/20 11:05:44;;;;;;;40.13;19.90;;;;;;;10.81;100.00;97092.75;4903743;29;20036;-70
2022/11/20 11:08:17;;;;;;;51.63;26.75;;;;;;;10.75;100.00;97082.50;4901846;29;20555;-70
2022/11/20 11:10:59;;;;;;;116.47;57.67;;;;;;;10.93;100.00;97088.38;4900036;29;20488;-71
2022/11/20 11:13:29;;;;;;;123.50;58.38;;;;;;;11.07;100.00;97089.13;4900524;29;20031;-70
2022/11/20 11:15:55;;;;;;;50.55;24.35;;;;;;;10.80;100.00;97085.69;4900493;29;20028;-69
2022/11/20 11:18:24;;;;;;;47.40;22.52;;;;;;;10.81;100.00;97093.63;4907011;29;20511;-73
2022/11/20 11:20:51;;;;;;;45.10;22.48;;;;;;;10.79;100.00;97108.94;4918747;29;20507;-73
2022/11/20 11:23:33;;;;;;;42.47;22.35;;;;;;;10.94;100.00;97124.88;4902933;29;20126;-73
2022/11/20 11:26:00;;;;;;;33.42;17.58;;;;;;;10.85;100.00;97139.75;4918924;29;20067;-74
2022/11/20 11:28:27;;;;;;;71.18;36.40;;;;;;;10.71;100.00;97135.34;4889328;29;20040;-74
2022/11/20 11:30:54;;;;;;;30.98;15.13;;;;;;;10.62;100.00;97141.31;4899697;29;20400;-74
2022/11/20 11:33:24;;;;;;;37.78;19.90;;;;;;;10.59;100.00;97141.53;4899909;29;20475;-70